CSN373 ZGGG-VVTS
Flight info
| Callsign | CSN373 |
|---|---|
| Flight time | 2h 17m |
| Altitude | 36000 |
| Route | SIERA DCT ROCCA DCT ALLEY V32 EPDOS L642 EPKAL/K0870F360 L642 SOSPA W15 VETOM VETOM5C |
| Aircraft | B38M/M-SDE1FGHILORVWXY/HB1 |
Departure
| Time | 2026-05-04 09:47 |
|---|---|
| Airport | Guangzhou Baiyun International Airport (ZGGG) |
Arrival
| Time | 2026-05-04 12:04 |
|---|---|
| Airport | Tan Son Nhat International Airport (VVTS) |
| Time | Latitude | Longitude | Altitude | Speed | Heading |
|---|---|---|---|---|---|
| 2026-05-04 09:34 | 23.38430 | 113.30154 | 61 ft | 0 kts | 232° |
| 2026-05-04 09:35 | 23.38440 | 113.30169 | 57 ft | 4 kts | 232° |
| 2026-05-04 09:35 | 23.38457 | 113.30192 | 54 ft | 3 kts | 232° |
| 2026-05-04 09:37 | 23.38517 | 113.30197 | 53 ft | 0 kts | 142° |
| 2026-05-04 09:42 | 23.38388 | 113.30372 | 53 ft | 16 kts | 103° |
| 2026-05-04 09:43 | 23.38359 | 113.30494 | 56 ft | 17 kts | 110° |
| 2026-05-04 09:43 | 23.38254 | 113.30518 | 55 ft | 18 kts | 193° |
| 2026-05-04 09:43 | 23.38129 | 113.30485 | 59 ft | 19 kts | 196° |
| 2026-05-04 09:43 | 23.37995 | 113.30447 | 59 ft | 21 kts | 194° |
| 2026-05-04 09:44 | 23.37851 | 113.30409 | 55 ft | 22 kts | 193° |
| 2026-05-04 09:44 | 23.37723 | 113.30374 | 58 ft | 14 kts | 195° |
| 2026-05-04 09:44 | 23.37628 | 113.30382 | 58 ft | 15 kts | 131° |
| 2026-05-04 09:46 | 23.37929 | 113.30630 | 54 ft | 83 kts | 14° |
| 2026-05-04 09:46 | 23.38704 | 113.30836 | 59 ft | 144 kts | 13° |
| 2026-05-04 09:46 | 23.39823 | 113.31153 | 172 ft | 181 kts | 16° |
| 2026-05-04 09:47 | 23.41065 | 113.31495 | 907 ft | 183 kts | 15° |
| 2026-05-04 09:47 | 23.42259 | 113.31847 | 1829 ft | 179 kts | 16° |
| 2026-05-04 09:49 | 23.53287 | 113.35122 | 6824 ft | 260 kts | 13° |
| 2026-05-04 09:49 | 23.55052 | 113.35648 | 7556 ft | 267 kts | 12° |
| 2026-05-04 09:49 | 23.56874 | 113.36071 | 8328 ft | 270 kts | 7° |
| 2026-05-04 09:51 | 23.64132 | 113.29149 | 12098 ft | 292 kts | 277° |
| 2026-05-04 09:51 | 23.64459 | 113.26954 | 12939 ft | 294 kts | 277° |
| 2026-05-04 09:51 | 23.64778 | 113.24740 | 13746 ft | 297 kts | 276° |
| 2026-05-04 09:51 | 23.65092 | 113.22501 | 14471 ft | 300 kts | 276° |
| 2026-05-04 09:52 | 23.65400 | 113.20283 | 15231 ft | 300 kts | 276° |
| 2026-05-04 09:52 | 23.65614 | 113.18016 | 15948 ft | 301 kts | 266° |
| 2026-05-04 09:52 | 23.65125 | 113.15812 | 16646 ft | 302 kts | 246° |
| 2026-05-04 09:52 | 23.63916 | 113.13921 | 17311 ft | 309 kts | 230° |
| 2026-05-04 09:53 | 23.62392 | 113.12247 | 17919 ft | 313 kts | 229° |
| 2026-05-04 09:53 | 23.60837 | 113.10576 | 18534 ft | 315 kts | 229° |
| 2026-05-04 09:53 | 23.59156 | 113.09012 | 19035 ft | 325 kts | 217° |
| 2026-05-04 09:53 | 23.57020 | 113.08095 | 19564 ft | 340 kts | 198° |
| 2026-05-04 09:54 | 23.54644 | 113.07935 | 20052 ft | 352 kts | 187° |
| 2026-05-04 09:54 | 23.52183 | 113.07933 | 20544 ft | 355 kts | 188° |
| 2026-05-04 09:54 | 23.49698 | 113.07934 | 21021 ft | 359 kts | 187° |
| 2026-05-04 09:54 | 23.47191 | 113.07944 | 21522 ft | 362 kts | 187° |
| 2026-05-04 09:55 | 23.44666 | 113.07957 | 22000 ft | 364 kts | 187° |
| 2026-05-04 09:55 | 23.42120 | 113.07971 | 22480 ft | 367 kts | 187° |
| 2026-05-04 09:55 | 23.39555 | 113.07985 | 22944 ft | 370 kts | 187° |
| 2026-05-04 09:55 | 23.36971 | 113.08000 | 23406 ft | 373 kts | 187° |
| 2026-05-04 09:56 | 23.34401 | 113.08014 | 23804 ft | 376 kts | 187° |
| 2026-05-04 09:56 | 23.31781 | 113.08029 | 24207 ft | 377 kts | 187° |
| 2026-05-04 09:56 | 23.29156 | 113.08043 | 24636 ft | 378 kts | 187° |
| 2026-05-04 09:56 | 23.26513 | 113.08203 | 25032 ft | 388 kts | 176° |
| 2026-05-04 09:57 | 23.23913 | 113.09149 | 25458 ft | 399 kts | 165° |
| 2026-05-04 09:57 | 23.21346 | 113.10299 | 25848 ft | 399 kts | 165° |
| 2026-05-04 09:57 | 23.18773 | 113.11453 | 26244 ft | 401 kts | 165° |
| 2026-05-04 09:57 | 23.16187 | 113.12624 | 26555 ft | 405 kts | 165° |
| 2026-05-04 09:58 | 23.13585 | 113.13807 | 26926 ft | 406 kts | 165° |
| 2026-05-04 09:58 | 23.11009 | 113.14979 | 27291 ft | 407 kts | 165° |
| 2026-05-04 09:58 | 23.08392 | 113.16169 | 27640 ft | 409 kts | 165° |
| 2026-05-04 10:00 | 22.89541 | 113.23302 | 29975 ft | 415 kts | 170° |
| 2026-05-04 10:00 | 22.86786 | 113.24267 | 30246 ft | 417 kts | 170° |
| 2026-05-04 10:02 | 22.67138 | 113.31142 | 31901 ft | 432 kts | 171° |
| 2026-05-04 10:04 | 22.46767 | 113.38335 | 33392 ft | 447 kts | 170° |
| 2026-05-04 10:04 | 22.43799 | 113.39384 | 33588 ft | 450 kts | 170° |
| 2026-05-04 10:04 | 22.40861 | 113.40422 | 33791 ft | 452 kts | 171° |
| 2026-05-04 10:04 | 22.37863 | 113.41480 | 33986 ft | 454 kts | 170° |
| 2026-05-04 10:05 | 22.34856 | 113.42542 | 34169 ft | 456 kts | 171° |
| 2026-05-04 10:05 | 22.31839 | 113.43606 | 34339 ft | 457 kts | 170° |
| 2026-05-04 10:05 | 22.28810 | 113.44674 | 34514 ft | 459 kts | 170° |
| 2026-05-04 10:06 | 22.22718 | 113.46820 | 34862 ft | 461 kts | 170° |
| 2026-05-04 10:06 | 22.19663 | 113.47895 | 35041 ft | 463 kts | 170° |
| 2026-05-04 10:06 | 22.16600 | 113.48973 | 35224 ft | 464 kts | 170° |
| 2026-05-04 10:08 | 21.98022 | 113.55243 | 35953 ft | 461 kts | 182° |
| 2026-05-04 10:08 | 21.95925 | 113.55381 | 35996 ft | 455 kts | 185° |
| 2026-05-04 10:08 | 21.89553 | 113.55849 | 35993 ft | 460 kts | 184° |
| 2026-05-04 10:09 | 21.82134 | 113.56331 | 35997 ft | 459 kts | 184° |
| 2026-05-04 10:09 | 21.76831 | 113.56656 | 36001 ft | 459 kts | 184° |
| 2026-05-04 10:10 | 21.69372 | 113.57111 | 35990 ft | 459 kts | 184° |
| 2026-05-04 10:10 | 21.62995 | 113.57499 | 35979 ft | 459 kts | 184° |
| 2026-05-04 10:11 | 21.56645 | 113.57886 | 35992 ft | 460 kts | 184° |
| 2026-05-04 10:11 | 21.53448 | 113.58298 | 35969 ft | 470 kts | 172° |
| 2026-05-04 10:11 | 21.50348 | 113.59505 | 36008 ft | 478 kts | 164° |
| 2026-05-04 10:12 | 21.45229 | 113.61794 | 35977 ft | 480 kts | 164° |
| 2026-05-04 10:12 | 21.39081 | 113.64609 | 35991 ft | 481 kts | 163° |
| 2026-05-04 10:13 | 21.32939 | 113.67436 | 35974 ft | 480 kts | 163° |
| 2026-05-04 10:13 | 21.26802 | 113.70258 | 35987 ft | 480 kts | 163° |
| 2026-05-04 10:14 | 21.20711 | 113.73058 | 35988 ft | 480 kts | 163° |
| 2026-05-04 10:16 | 20.98912 | 113.77449 | 35982 ft | 454 kts | 191° |
| 2026-05-04 10:16 | 20.95806 | 113.77134 | 35996 ft | 455 kts | 192° |
| 2026-05-04 10:16 | 20.89514 | 113.76450 | 35993 ft | 454 kts | 192° |
| 2026-05-04 10:17 | 20.83232 | 113.75749 | 35977 ft | 454 kts | 192° |
| 2026-05-04 10:19 | 20.58156 | 113.72950 | 35984 ft | 455 kts | 192° |
| 2026-05-04 10:19 | 20.51861 | 113.72249 | 35985 ft | 455 kts | 192° |
| 2026-05-04 10:20 | 20.45565 | 113.71548 | 35978 ft | 455 kts | 192° |
| 2026-05-04 10:20 | 20.39310 | 113.70852 | 35980 ft | 455 kts | 192° |
| 2026-05-04 10:21 | 20.33012 | 113.70152 | 35976 ft | 455 kts | 192° |
| 2026-05-04 10:21 | 20.26714 | 113.69453 | 35978 ft | 455 kts | 192° |
| 2026-05-04 10:22 | 20.17272 | 113.68405 | 35974 ft | 455 kts | 192° |
| 2026-05-04 10:23 | 20.11016 | 113.67712 | 35954 ft | 456 kts | 191° |
| 2026-05-04 10:25 | 19.85598 | 113.64901 | 35967 ft | 459 kts | 191° |
| 2026-05-04 10:25 | 19.79282 | 113.64203 | 35964 ft | 459 kts | 191° |
| 2026-05-04 10:26 | 19.72932 | 113.63503 | 35968 ft | 459 kts | 191° |
| 2026-05-04 10:26 | 19.66581 | 113.62803 | 35969 ft | 459 kts | 191° |
| 2026-05-04 10:27 | 19.60229 | 113.62104 | 35967 ft | 459 kts | 191° |
| 2026-05-04 10:27 | 19.53923 | 113.61410 | 35966 ft | 459 kts | 191° |
| 2026-05-04 10:28 | 19.47573 | 113.60712 | 35960 ft | 459 kts | 191° |
| 2026-05-04 10:28 | 19.41214 | 113.60013 | 35968 ft | 459 kts | 191° |
| 2026-05-04 10:29 | 19.34852 | 113.59315 | 35965 ft | 459 kts | 191° |
| 2026-05-04 10:29 | 19.28495 | 113.58618 | 35966 ft | 460 kts | 191° |
| 2026-05-04 10:30 | 19.22173 | 113.57925 | 35963 ft | 460 kts | 191° |
| 2026-05-04 10:30 | 19.15807 | 113.57228 | 35963 ft | 461 kts | 191° |
| 2026-05-04 10:31 | 19.09421 | 113.56529 | 35962 ft | 461 kts | 191° |
| 2026-05-04 10:32 | 18.87208 | 113.53630 | 35957 ft | 460 kts | 192° |
| 2026-05-04 10:33 | 18.80869 | 113.52733 | 35962 ft | 459 kts | 192° |
| 2026-05-04 10:33 | 18.74534 | 113.51837 | 35961 ft | 459 kts | 192° |
| 2026-05-04 10:34 | 18.68200 | 113.50941 | 35963 ft | 459 kts | 192° |
| 2026-05-04 10:34 | 18.61867 | 113.50046 | 35958 ft | 459 kts | 192° |
| 2026-05-04 10:35 | 18.55753 | 113.48599 | 35934 ft | 446 kts | 211° |
| 2026-05-04 10:35 | 18.50567 | 113.45084 | 35945 ft | 444 kts | 218° |
| 2026-05-04 10:36 | 18.45530 | 113.41314 | 35961 ft | 444 kts | 219° |
| 2026-05-04 10:36 | 18.40540 | 113.37492 | 35955 ft | 444 kts | 219° |
| 2026-05-04 10:37 | 18.35559 | 113.33657 | 35958 ft | 443 kts | 219° |
| 2026-05-04 10:37 | 18.30615 | 113.29850 | 35958 ft | 443 kts | 219° |
| 2026-05-04 10:39 | 18.13175 | 113.16446 | 35955 ft | 445 kts | 219° |
| 2026-05-04 10:40 | 18.08180 | 113.12613 | 35958 ft | 445 kts | 219° |
| 2026-05-04 10:40 | 18.03187 | 113.08784 | 35958 ft | 444 kts | 219° |
| 2026-05-04 10:41 | 17.98192 | 113.04957 | 35951 ft | 445 kts | 219° |
| 2026-05-04 10:41 | 17.93175 | 113.01115 | 35952 ft | 447 kts | 219° |
| 2026-05-04 10:42 | 17.88189 | 112.97300 | 35953 ft | 446 kts | 219° |
| 2026-05-04 10:42 | 17.83210 | 112.93408 | 35951 ft | 446 kts | 220° |
| 2026-05-04 10:43 | 17.78241 | 112.89498 | 35955 ft | 446 kts | 220° |
| 2026-05-04 10:45 | 17.58392 | 112.73917 | 35951 ft | 446 kts | 220° |
| 2026-05-04 10:45 | 17.53420 | 112.70021 | 35955 ft | 446 kts | 220° |
| 2026-05-04 10:46 | 17.48453 | 112.66132 | 35954 ft | 446 kts | 220° |
| 2026-05-04 10:46 | 17.43482 | 112.62242 | 35952 ft | 446 kts | 220° |
| 2026-05-04 10:47 | 17.38545 | 112.58382 | 35953 ft | 446 kts | 220° |
| 2026-05-04 10:47 | 17.33574 | 112.54498 | 35952 ft | 446 kts | 220° |
| 2026-05-04 10:49 | 17.13720 | 112.39010 | 35953 ft | 444 kts | 220° |
| 2026-05-04 10:50 | 17.08762 | 112.35149 | 35953 ft | 445 kts | 220° |
| 2026-05-04 10:52 | 16.88832 | 112.19881 | 35952 ft | 445 kts | 219° |
| 2026-05-04 10:52 | 16.83824 | 112.16085 | 35953 ft | 445 kts | 219° |
| 2026-05-04 10:54 | 16.63833 | 112.00955 | 35953 ft | 444 kts | 219° |
| 2026-05-04 10:56 | 16.43827 | 111.85854 | 35947 ft | 445 kts | 219° |
| 2026-05-04 10:57 | 16.38808 | 111.82072 | 35950 ft | 445 kts | 219° |
| 2026-05-04 10:57 | 16.33791 | 111.78293 | 35952 ft | 445 kts | 219° |
| 2026-05-04 10:58 | 16.28772 | 111.74516 | 35945 ft | 445 kts | 219° |
| 2026-05-04 10:58 | 16.23757 | 111.70745 | 35944 ft | 445 kts | 219° |
| 2026-05-04 10:59 | 16.18768 | 111.66994 | 35947 ft | 446 kts | 219° |
| 2026-05-04 10:59 | 16.13739 | 111.63216 | 35945 ft | 446 kts | 219° |
| 2026-05-04 11:00 | 16.08711 | 111.59442 | 35948 ft | 446 kts | 219° |
| 2026-05-04 11:02 | 15.88620 | 111.44384 | 35943 ft | 447 kts | 219° |
| 2026-05-04 11:05 | 15.50735 | 111.16091 | 35941 ft | 450 kts | 219° |
| 2026-05-04 11:06 | 15.45656 | 111.12307 | 35954 ft | 448 kts | 219° |
| 2026-05-04 11:06 | 15.40612 | 111.08553 | 35941 ft | 446 kts | 219° |
| 2026-05-04 11:10 | 15.05530 | 110.81972 | 35938 ft | 447 kts | 219° |
| 2026-05-04 11:12 | 14.85513 | 110.66823 | 35945 ft | 447 kts | 219° |
| 2026-05-04 11:12 | 14.80493 | 110.63029 | 35941 ft | 447 kts | 219° |
| 2026-05-04 11:13 | 14.75473 | 110.59237 | 35940 ft | 447 kts | 219° |
| 2026-05-04 11:13 | 14.70483 | 110.55470 | 35940 ft | 447 kts | 219° |
| 2026-05-04 11:14 | 14.65449 | 110.51672 | 35944 ft | 450 kts | 218° |
| 2026-05-04 11:16 | 14.45266 | 110.36468 | 35945 ft | 449 kts | 218° |
| 2026-05-04 11:16 | 14.40218 | 110.32671 | 35945 ft | 449 kts | 218° |
| 2026-05-04 11:17 | 14.35170 | 110.28876 | 35942 ft | 449 kts | 218° |
| 2026-05-04 11:19 | 14.15008 | 110.13739 | 35934 ft | 449 kts | 218° |
| 2026-05-04 11:19 | 14.09967 | 110.09960 | 35937 ft | 447 kts | 218° |
| 2026-05-04 11:20 | 14.04938 | 110.06191 | 35930 ft | 448 kts | 218° |
| 2026-05-04 11:20 | 13.99883 | 110.02406 | 35936 ft | 450 kts | 218° |
| 2026-05-04 11:22 | 13.78761 | 109.88594 | 35933 ft | 451 kts | 214° |
| 2026-05-04 11:23 | 13.73446 | 109.85172 | 35927 ft | 451 kts | 214° |
| 2026-05-04 11:25 | 13.54667 | 109.73095 | 35931 ft | 456 kts | 214° |
| 2026-05-04 11:25 | 13.49283 | 109.69637 | 35934 ft | 456 kts | 214° |
| 2026-05-04 11:27 | 13.25024 | 109.54077 | 35930 ft | 458 kts | 213° |
| 2026-05-04 11:28 | 13.19617 | 109.50614 | 35930 ft | 458 kts | 213° |
| 2026-05-04 11:28 | 13.14249 | 109.47178 | 35930 ft | 458 kts | 213° |
| 2026-05-04 11:29 | 13.08844 | 109.43720 | 35929 ft | 457 kts | 212° |
| 2026-05-04 11:29 | 13.03442 | 109.40265 | 35933 ft | 458 kts | 212° |
| 2026-05-04 11:33 | 12.65557 | 109.16090 | 35940 ft | 460 kts | 213° |
| 2026-05-04 11:33 | 12.60153 | 109.12658 | 35935 ft | 460 kts | 213° |
| 2026-05-04 11:34 | 12.54698 | 109.09196 | 35944 ft | 463 kts | 213° |
| 2026-05-04 11:34 | 12.49222 | 109.05720 | 35944 ft | 463 kts | 213° |
| 2026-05-04 11:35 | 12.43742 | 109.02245 | 35940 ft | 463 kts | 213° |
| 2026-05-04 11:35 | 12.38318 | 108.98807 | 35948 ft | 461 kts | 213° |
| 2026-05-04 11:36 | 12.32867 | 108.95352 | 35777 ft | 460 kts | 213° |
| 2026-05-04 11:36 | 12.30150 | 108.93631 | 35548 ft | 459 kts | 213° |
| 2026-05-04 11:36 | 12.27429 | 108.91910 | 35318 ft | 460 kts | 213° |
| 2026-05-04 11:37 | 12.24711 | 108.90188 | 35100 ft | 460 kts | 213° |
| 2026-05-04 11:37 | 12.21988 | 108.88465 | 34870 ft | 460 kts | 213° |
| 2026-05-04 11:37 | 12.19302 | 108.86765 | 34652 ft | 461 kts | 213° |
| 2026-05-04 11:37 | 12.16572 | 108.85038 | 34436 ft | 462 kts | 213° |
| 2026-05-04 11:38 | 12.13838 | 108.83309 | 34231 ft | 462 kts | 213° |
| 2026-05-04 11:38 | 12.11108 | 108.81584 | 34008 ft | 462 kts | 213° |
| 2026-05-04 11:38 | 12.08365 | 108.79849 | 33764 ft | 465 kts | 212° |
| 2026-05-04 11:38 | 12.05603 | 108.78104 | 33516 ft | 467 kts | 213° |
| 2026-05-04 11:39 | 12.02841 | 108.76358 | 33250 ft | 468 kts | 213° |
| 2026-05-04 11:39 | 12.00066 | 108.74606 | 32999 ft | 470 kts | 213° |
| 2026-05-04 11:40 | 11.84151 | 108.63184 | 31565 ft | 468 kts | 236° |
| 2026-05-04 11:41 | 11.82647 | 108.60253 | 31345 ft | 467 kts | 250° |
| 2026-05-04 11:41 | 11.81607 | 108.57105 | 31134 ft | 470 kts | 252° |
| 2026-05-04 11:41 | 11.80628 | 108.53909 | 30901 ft | 471 kts | 253° |
| 2026-05-04 11:41 | 11.79689 | 108.50702 | 30682 ft | 472 kts | 253° |
| 2026-05-04 11:42 | 11.78780 | 108.47523 | 30452 ft | 474 kts | 253° |
| 2026-05-04 11:42 | 11.77867 | 108.44282 | 30226 ft | 478 kts | 253° |
| 2026-05-04 11:42 | 11.76950 | 108.41007 | 29992 ft | 480 kts | 253° |
| 2026-05-04 11:42 | 11.76028 | 108.37725 | 29731 ft | 481 kts | 252° |
| 2026-05-04 11:43 | 11.74684 | 108.34612 | 29431 ft | 480 kts | 237° |
| 2026-05-04 11:43 | 11.72782 | 108.31810 | 29190 ft | 481 kts | 234° |
| 2026-05-04 11:43 | 11.70872 | 108.29005 | 28922 ft | 482 kts | 234° |
| 2026-05-04 11:43 | 11.68970 | 108.26243 | 28672 ft | 483 kts | 234° |
| 2026-05-04 11:44 | 11.67026 | 108.23441 | 28417 ft | 484 kts | 234° |
| 2026-05-04 11:44 | 11.65080 | 108.20642 | 28171 ft | 484 kts | 234° |
| 2026-05-04 11:44 | 11.63133 | 108.17841 | 27929 ft | 485 kts | 234° |
| 2026-05-04 11:44 | 11.61176 | 108.15027 | 27678 ft | 486 kts | 234° |
| 2026-05-04 11:45 | 11.59220 | 108.12217 | 27415 ft | 486 kts | 234° |
| 2026-05-04 11:45 | 11.57259 | 108.09399 | 27167 ft | 487 kts | 234° |
| 2026-05-04 11:45 | 11.55309 | 108.06597 | 26345 ft | 483 kts | 234° |
| 2026-05-04 11:45 | 11.53356 | 108.03795 | 25440 ft | 485 kts | 234° |
| 2026-05-04 11:46 | 11.51433 | 108.01035 | 24762 ft | 482 kts | 234° |
| 2026-05-04 11:46 | 11.49500 | 107.98260 | 24073 ft | 479 kts | 234° |
| 2026-05-04 11:46 | 11.47571 | 107.95494 | 23337 ft | 477 kts | 234° |
| 2026-05-04 11:46 | 11.45652 | 107.92743 | 22504 ft | 475 kts | 234° |
| 2026-05-04 11:47 | 11.43748 | 107.90010 | 21798 ft | 471 kts | 234° |
| 2026-05-04 11:47 | 11.41857 | 107.87300 | 21101 ft | 467 kts | 234° |
| 2026-05-04 11:47 | 11.39979 | 107.84610 | 20407 ft | 464 kts | 234° |
| 2026-05-04 11:47 | 11.38117 | 107.81941 | 19719 ft | 461 kts | 234° |
| 2026-05-04 11:48 | 11.36262 | 107.79284 | 19097 ft | 457 kts | 234° |
| 2026-05-04 11:48 | 11.34424 | 107.76653 | 18417 ft | 455 kts | 233° |
| 2026-05-04 11:48 | 11.32613 | 107.74060 | 17695 ft | 453 kts | 234° |
| 2026-05-04 11:48 | 11.30799 | 107.71464 | 17118 ft | 446 kts | 233° |
| 2026-05-04 11:49 | 11.29014 | 107.68910 | 16535 ft | 439 kts | 234° |
| 2026-05-04 11:49 | 11.27228 | 107.66355 | 15621 ft | 443 kts | 233° |
| 2026-05-04 11:49 | 11.25450 | 107.63811 | 15090 ft | 437 kts | 234° |
| 2026-05-04 11:49 | 11.23700 | 107.61321 | 14663 ft | 428 kts | 232° |
| 2026-05-04 11:50 | 11.21691 | 107.59115 | 13944 ft | 426 kts | 224° |
| 2026-05-04 11:50 | 11.19585 | 107.57031 | 13263 ft | 426 kts | 223° |
| 2026-05-04 11:50 | 11.17480 | 107.54937 | 12741 ft | 420 kts | 224° |
| 2026-05-04 11:50 | 11.15407 | 107.52871 | 12234 ft | 415 kts | 224° |
| 2026-05-04 11:51 | 11.13362 | 107.50835 | 11906 ft | 405 kts | 224° |
| 2026-05-04 11:51 | 11.11382 | 107.48861 | 11758 ft | 392 kts | 223° |
| 2026-05-04 11:51 | 11.09464 | 107.46951 | 11585 ft | 380 kts | 223° |
| 2026-05-04 11:51 | 11.07602 | 107.45096 | 11390 ft | 370 kts | 224° |
| 2026-05-04 11:52 | 11.05787 | 107.43289 | 11193 ft | 360 kts | 223° |
| 2026-05-04 11:52 | 11.04021 | 107.41531 | 11021 ft | 350 kts | 224° |
| 2026-05-04 11:52 | 11.02343 | 107.39831 | 10911 ft | 339 kts | 228° |
| 2026-05-04 11:52 | 11.01173 | 107.37788 | 10662 ft | 335 kts | 252° |
| 2026-05-04 11:53 | 11.00682 | 107.35490 | 10360 ft | 331 kts | 258° |
| 2026-05-04 11:53 | 11.00369 | 107.33976 | 10162 ft | 329 kts | 258° |
| 2026-05-04 11:53 | 10.99733 | 107.30957 | 9783 ft | 324 kts | 258° |
| 2026-05-04 11:53 | 10.99263 | 107.28729 | 9498 ft | 320 kts | 258° |
| 2026-05-04 11:55 | 10.96154 | 107.14022 | 7737 ft | 291 kts | 258° |
| 2026-05-04 11:55 | 10.95730 | 107.12023 | 7495 ft | 287 kts | 258° |
| 2026-05-04 11:56 | 10.95313 | 107.10051 | 7260 ft | 284 kts | 258° |
| 2026-05-04 11:56 | 10.94899 | 107.08095 | 7031 ft | 283 kts | 259° |
| 2026-05-04 11:56 | 10.94489 | 107.06160 | 6801 ft | 283 kts | 258° |
| 2026-05-04 11:56 | 10.94074 | 107.04201 | 6574 ft | 283 kts | 258° |
| 2026-05-04 11:57 | 10.93659 | 107.02250 | 6338 ft | 281 kts | 258° |
| 2026-05-04 11:57 | 10.93250 | 107.00320 | 6082 ft | 277 kts | 258° |
| 2026-05-04 11:57 | 10.92845 | 106.98415 | 5851 ft | 274 kts | 258° |
| 2026-05-04 11:57 | 10.92447 | 106.96536 | 5617 ft | 270 kts | 258° |
| 2026-05-04 11:58 | 10.92054 | 106.94686 | 5407 ft | 265 kts | 258° |
| 2026-05-04 11:58 | 10.91670 | 106.92880 | 5270 ft | 257 kts | 258° |
| 2026-05-04 11:58 | 10.91388 | 106.91105 | 5102 ft | 251 kts | 261° |
| 2026-05-04 11:58 | 10.91023 | 106.89403 | 4946 ft | 243 kts | 254° |
| 2026-05-04 11:59 | 10.90520 | 106.87786 | 4623 ft | 244 kts | 251° |
| 2026-05-04 11:59 | 10.89938 | 106.86156 | 4245 ft | 247 kts | 248° |
| 2026-05-04 11:59 | 10.89327 | 106.84526 | 3866 ft | 244 kts | 248° |
| 2026-05-04 11:59 | 10.88732 | 106.82943 | 3496 ft | 235 kts | 248° |
| 2026-05-04 12:00 | 10.88159 | 106.81420 | 3143 ft | 227 kts | 247° |
| 2026-05-04 12:00 | 10.87606 | 106.79948 | 2792 ft | 219 kts | 246° |
| 2026-05-04 12:00 | 10.87073 | 106.78527 | 2480 ft | 211 kts | 245° |
| 2026-05-04 12:00 | 10.86561 | 106.77162 | 2204 ft | 202 kts | 246° |
| 2026-05-04 12:01 | 10.86073 | 106.75863 | 1940 ft | 192 kts | 246° |
| 2026-05-04 12:01 | 10.85762 | 106.75036 | 1757 ft | 186 kts | 245° |
| 2026-05-04 12:02 | 10.83224 | 106.68245 | 509 ft | 156 kts | 246° |
| 2026-05-04 12:03 | 10.82831 | 106.67221 | 248 ft | 154 kts | 246° |
| 2026-05-04 12:03 | 10.82449 | 106.66204 | 58 ft | 153 kts | 245° |
| 2026-05-04 12:03 | 10.82105 | 106.65329 | 37 ft | 106 kts | 250° |
| 2026-05-04 12:03 | 10.81921 | 106.64829 | 39 ft | 50 kts | 249° |
| 2026-05-04 12:04 | 10.81802 | 106.64650 | 40 ft | 22 kts | 224° |
| 2026-05-04 12:04 | 10.81773 | 106.64621 | 41 ft | 0 kts | 222° |
| 2026-05-04 12:04 | 10.81769 | 106.64618 | 41 ft | 2 kts | 222° |
| 2026-05-04 12:04 | 10.81751 | 106.64601 | 41 ft | 9 kts | 222° |
| 2026-05-04 12:05 | 10.81635 | 106.64497 | 40 ft | 21 kts | 230° |
| 2026-05-04 12:05 | 10.81587 | 106.64406 | 39 ft | 19 kts | 249° |
| 2026-05-04 12:05 | 10.81464 | 106.64322 | 39 ft | 19 kts | 158° |
| 2026-05-04 12:05 | 10.81335 | 106.64373 | 39 ft | 21 kts | 159° |
| 2026-05-04 12:06 | 10.81229 | 106.64469 | 39 ft | 22 kts | 106° |
| 2026-05-04 12:06 | 10.81206 | 106.64618 | 42 ft | 22 kts | 85° |
| 2026-05-04 12:06 | 10.81255 | 106.64771 | 40 ft | 24 kts | 69° |
| 2026-05-04 12:06 | 10.81295 | 106.64878 | 39 ft | 25 kts | 68° |
| 2026-05-04 12:07 | 10.81325 | 106.65052 | 40 ft | 11 kts | 151° |
| 2026-05-04 12:07 | 10.81254 | 106.65088 | 40 ft | 11 kts | 123° |
| 2026-05-04 12:07 | 10.81260 | 106.65137 | 39 ft | 11 kts | 63° |
| 2026-05-04 12:07 | 10.81275 | 106.65218 | 40 ft | 3 kts | 147° |
| 2026-05-04 12:08 | 10.81261 | 106.65223 | 40 ft | 4 kts | 158° |
| 2026-05-04 12:08 | 10.81232 | 106.65234 | 40 ft | 4 kts | 160° |
| 2026-05-04 12:08 | 10.81231 | 106.65235 | 40 ft | 0 kts | 160° |